createdAt,value
2022-11-03T00:02:21.336Z,18.00
2022-11-03T00:04:50.159Z,20.50
2022-11-03T00:07:23.421Z,26.33
2022-11-03T00:09:52.020Z,25.33
2022-11-03T00:12:20.870Z,21.00
2022-11-03T00:14:49.599Z,24.50
2022-11-03T00:17:18.254Z,23.00
2022-11-03T00:19:46.947Z,25.00
2022-11-03T00:22:15.601Z,26.00
2022-11-03T00:24:44.413Z,30.00
2022-11-03T00:27:13.153Z,25.50
2022-11-03T00:29:40.952Z,20.00
2022-11-03T00:32:09.643Z,28.00
2022-11-03T00:34:37.450Z,18.50
2022-11-03T00:37:06.085Z,26.00
2022-11-03T00:39:37.909Z,21.33
2022-11-03T00:42:07.928Z,24.00
2022-11-03T00:44:36.599Z,19.00
2022-11-03T00:47:04.402Z,18.00
2022-11-03T00:49:33.101Z,19.00
2022-11-03T00:52:01.817Z,22.50
2022-11-03T00:54:29.518Z,22.00
2022-11-03T00:56:57.493Z,24.00
2022-11-03T00:59:45.054Z,18.00
2022-11-03T01:02:15.434Z,21.00
2022-11-03T01:05:02.699Z,19.33
2022-11-03T01:07:31.382Z,20.33
2022-11-03T01:10:00.047Z,21.00
2022-11-03T01:12:28.788Z,16.33
2022-11-03T01:14:56.523Z,17.00
2022-11-03T01:17:29.079Z,19.00
2022-11-03T01:19:57.233Z,24.00
2022-11-03T01:22:25.897Z,20.67
2022-11-03T01:24:54.615Z,19.67
2022-11-03T01:27:26.450Z,17.33
2022-11-03T01:29:55.110Z,18.67
2022-11-03T01:32:23.807Z,12.67
2022-11-03T01:34:51.548Z,14.00
2022-11-03T01:37:20.252Z,16.33
2022-11-03T01:39:48.032Z,15.00
2022-11-03T01:42:17.754Z,13.00
2022-11-03T01:44:50.264Z,13.50
2022-11-03T01:47:33.441Z,11.33
2022-11-03T01:50:17.304Z,12.00
2022-11-03T01:52:56.535Z,10.50
2022-11-03T01:55:35.895Z,12.00
2022-11-03T01:58:35.025Z,6.00
2022-11-03T02:01:03.691Z,12.00
2022-11-03T02:03:42.986Z,11.00
2022-11-03T02:06:15.485Z,8.00
2022-11-03T02:08:54.819Z,7.00
2022-11-03T02:11:42.539Z,9.33
2022-11-03T02:14:16.498Z,12.40
2022-11-03T02:16:56.420Z,7.50
2022-11-03T02:19:59.125Z,12.50
2022-11-03T02:22:55.556Z,10.57
2022-11-03T02:25:35.158Z,11.00
2022-11-03T02:28:05.659Z,11.50
2022-11-03T02:31:14.688Z,12.00
2022-11-03T02:34:06.867Z,9.50
2022-11-03T02:36:47.903Z,11.00
2022-11-03T02:39:30.424Z,9.00
2022-11-03T02:42:01.725Z,12.00
2022-11-03T02:44:35.117Z,10.33
2022-11-03T02:47:13.253Z,11.00
2022-11-03T02:49:51.057Z,12.00
2022-11-03T02:52:41.224Z,12.00
2022-11-03T02:56:01.546Z,11.00
2022-11-03T02:59:02.098Z,5.60
2022-11-03T03:01:47.717Z,12.50
2022-11-03T03:04:44.198Z,7.40
2022-11-03T03:07:21.387Z,13.00
2022-11-03T03:10:12.455Z,11.00
2022-11-03T03:12:48.787Z,12.00
2022-11-03T03:15:19.244Z,10.50
2022-11-03T03:18:15.364Z,12.00
2022-11-03T03:20:57.951Z,10.20
2022-11-03T03:23:36.526Z,11.67
2022-11-03T03:26:41.795Z,13.00
2022-11-03T03:29:43.698Z,13.00
2022-11-03T03:32:23.972Z,8.00
2022-11-03T03:34:55.653Z,13.00
2022-11-03T03:37:28.193Z,14.40
2022-11-03T03:40:04.147Z,13.00
2022-11-03T03:42:35.916Z,16.40
2022-11-03T03:45:07.104Z,11.00
2022-11-03T03:47:36.173Z,12.00
2022-11-03T03:50:06.203Z,14.67
2022-11-03T03:52:37.159Z,17.20
2022-11-03T03:55:18.856Z,12.33
2022-11-03T03:57:46.606Z,10.00
2022-11-03T04:00:18.146Z,17.33
2022-11-03T04:02:46.715Z,15.00
2022-11-03T04:05:14.654Z,16.50
2022-11-03T04:07:47.256Z,10.60
2022-11-03T04:10:18.414Z,13.50
2022-11-03T04:13:06.217Z,24.50
2022-11-03T04:16:07.327Z,21.00
2022-11-03T04:18:53.434Z,19.50
2022-11-03T04:21:40.641Z,19.67
2022-11-03T04:24:09.327Z,21.50
2022-11-03T04:26:37.087Z,24.00
2022-11-03T04:29:10.059Z,15.50
2022-11-03T04:31:38.148Z,19.50
2022-11-03T04:34:12.295Z,19.00
2022-11-03T04:36:40.932Z,24.00
2022-11-03T04:39:20.865Z,23.50
2022-11-03T04:41:49.670Z,28.50
2022-11-03T04:44:18.304Z,26.00
2022-11-03T04:46:47.254Z,35.00
2022-11-03T04:49:23.616Z,33.00
2022-11-03T04:51:53.021Z,34.33
2022-11-03T04:54:24.386Z,31.00
2022-11-03T04:56:53.934Z,29.33
2022-11-03T04:59:22.588Z,41.67
2022-11-03T05:01:52.539Z,42.33
2022-11-03T05:04:21.343Z,36.00
2022-11-03T05:06:54.434Z,39.33
2022-11-03T05:09:32.654Z,51.33
2022-11-03T05:12:05.537Z,54.33
2022-11-03T05:14:35.298Z,44.33
2022-11-03T05:17:24.149Z,46.00
2022-11-03T05:20:01.828Z,40.00
2022-11-03T05:22:36.647Z,42.67
2022-11-03T05:25:45.888Z,41.67
2022-11-03T05:28:34.046Z,54.00
2022-11-03T05:31:26.455Z,45.00
2022-11-03T05:34:21.266Z,52.00
2022-11-03T05:36:49.943Z,52.00
2022-11-03T05:39:41.283Z,51.67
2022-11-03T05:42:40.297Z,37.33
2022-11-03T05:45:33.522Z,37.33
2022-11-03T05:48:13.333Z,36.33
2022-11-03T05:50:43.670Z,40.00
2022-11-03T05:53:36.115Z,43.00
2022-11-03T05:56:12.905Z,52.33
2022-11-03T05:58:44.592Z,43.33
2022-11-03T06:01:37.886Z,44.33
2022-11-03T06:04:37.362Z,50.00
2022-11-03T06:07:26.636Z,44.67
2022-11-03T06:09:56.849Z,46.67
2022-11-03T06:12:27.308Z,50.33
2022-11-03T06:14:56.103Z,49.50
2022-11-03T06:17:28.570Z,50.67
2022-11-03T06:20:01.471Z,54.67
2022-11-03T06:22:41.625Z,70.00
2022-11-03T06:25:36.670Z,54.00
2022-11-03T06:28:12.511Z,55.00
2022-11-03T06:33:36.487Z,58.33
2022-11-03T06:36:23.025Z,46.50
2022-11-03T06:39:01.806Z,51.67
2022-11-03T06:41:33.525Z,52.50
2022-11-03T06:44:20.658Z,49.00
2022-11-03T06:46:49.349Z,44.50
2022-11-03T06:49:35.895Z,43.00
2022-11-03T06:52:40.485Z,47.00
2022-11-03T06:55:15.780Z,49.67
2022-11-03T06:57:49.423Z,50.33
2022-11-03T07:00:38.573Z,57.00
2022-11-03T07:03:28.537Z,59.00
2022-11-03T07:06:15.775Z,46.00
2022-11-03T07:08:55.532Z,52.67
2022-11-03T07:11:28.753Z,52.00
2022-11-03T07:14:16.190Z,69.67
2022-11-03T07:17:23.355Z,69.33
2022-11-03T07:19:53.335Z,59.67
2022-11-03T07:22:28.260Z,70.00
2022-11-03T07:25:03.960Z,69.67
2022-11-03T07:27:41.227Z,69.00
2022-11-03T07:30:34.434Z,72.67
2022-11-03T07:33:18.755Z,66.00
2022-11-03T07:36:20.261Z,65.00
2022-11-03T07:38:42.790Z,66.00
2022-11-03T07:41:21.889Z,61.33
2022-11-03T07:43:59.568Z,60.00
2022-11-03T07:46:29.554Z,64.67
2022-11-03T07:49:03.782Z,60.67
2022-11-03T07:51:38.219Z,64.25
2022-11-03T07:54:32.679Z,65.67
2022-11-03T07:57:31.326Z,67.67
2022-11-03T08:00:21.093Z,56.00
2022-11-03T08:03:00.967Z,69.33
2022-11-03T08:05:30.548Z,63.00
2022-11-03T08:08:00.080Z,71.00
2022-11-03T08:10:29.863Z,62.00
2022-11-03T08:12:59.739Z,69.33
2022-11-03T08:15:32.199Z,69.67
2022-11-03T08:18:01.768Z,68.00
2022-11-03T08:20:31.296Z,62.33
2022-11-03T08:23:26.982Z,63.00
2022-11-03T08:25:50.281Z,68.50
2022-11-03T08:28:19.871Z,65.67
2022-11-03T08:30:50.849Z,65.00
2022-11-03T08:33:20.591Z,63.67
2022-11-03T08:35:50.221Z,63.33
2022-11-03T08:38:19.826Z,69.00
2022-11-03T08:40:54.321Z,66.67
2022-11-03T08:43:25.639Z,58.00
2022-11-03T08:45:55.559Z,68.67
2022-11-03T08:48:27.890Z,63.00
2022-11-03T08:50:57.472Z,61.00
2022-11-03T08:53:28.050Z,60.00
2022-11-03T08:55:57.678Z,69.00
2022-11-03T08:58:27.318Z,56.67
2022-11-03T09:00:56.801Z,67.00
2022-11-03T09:03:26.435Z,67.50
2022-11-03T09:05:55.172Z,60.33
2022-11-03T09:11:14.105Z,69.33
2022-11-03T09:13:43.680Z,60.67
2022-11-03T09:16:13.146Z,64.00
2022-11-03T09:18:42.727Z,54.67
2022-11-03T09:21:12.352Z,64.00
2022-11-03T09:23:41.936Z,63.00
2022-11-03T09:26:11.397Z,59.67
2022-11-03T09:28:40.994Z,61.33
2022-11-03T09:31:10.564Z,57.67
2022-11-03T09:33:40.137Z,64.75
2022-11-03T09:36:09.997Z,58.00
2022-11-03T09:38:39.490Z,58.00
2022-11-03T09:41:18.761Z,58.67
2022-11-03T09:43:59.291Z,59.75
2022-11-03T09:46:30.887Z,57.67
2022-11-03T09:49:00.706Z,59.33
2022-11-03T09:51:30.712Z,63.67
2022-11-03T09:54:05.081Z,69.00
2022-11-03T09:56:37.749Z,55.00
2022-11-03T09:59:23.389Z,81.33
2022-11-03T10:01:54.973Z,61.75
2022-11-03T10:04:29.490Z,62.67
2022-11-03T10:07:00.110Z,59.67
2022-11-03T10:09:30.563Z,62.00
2022-11-03T10:12:00.255Z,64.00
2022-11-03T10:14:29.821Z,59.00
2022-11-03T10:17:00.718Z,61.50
2022-11-03T10:19:31.272Z,64.50
2022-11-03T10:22:00.886Z,58.67
2022-11-03T10:24:30.482Z,58.33
2022-11-03T10:26:59.918Z,62.75
2022-11-03T10:29:31.589Z,63.00
2022-11-03T10:32:03.287Z,62.67
2022-11-03T10:34:41.947Z,65.00
2022-11-03T10:37:23.278Z,58.33
2022-11-03T10:39:58.038Z,58.67
2022-11-03T10:42:35.409Z,60.67
2022-11-03T10:45:21.914Z,57.33
2022-11-03T10:48:05.849Z,72.25
2022-11-03T10:50:35.821Z,67.67
2022-11-03T10:53:05.862Z,57.33
2022-11-03T10:55:35.748Z,61.00
2022-11-03T10:58:06.872Z,62.50
2022-11-03T11:00:35.762Z,64.00
2022-11-03T11:03:08.157Z,61.67
2022-11-03T11:05:47.472Z,68.67
2022-11-03T11:08:23.765Z,66.67
2022-11-03T11:10:55.289Z,60.33
2022-11-03T11:13:27.611Z,61.00
2022-11-03T11:16:02.905Z,63.67
2022-11-03T11:18:32.380Z,58.67
2022-11-03T11:21:24.884Z,63.33
2022-11-03T11:23:54.401Z,69.00
2022-11-03T11:26:26.006Z,63.00
2022-11-03T11:29:11.268Z,66.50
2022-11-03T11:31:42.668Z,63.67
2022-11-03T11:34:17.457Z,73.00
2022-11-03T11:36:53.994Z,83.50
2022-11-03T11:39:31.253Z,79.75
2022-11-03T11:42:17.627Z,73.50
2022-11-03T11:44:46.061Z,81.00
2022-11-03T11:47:29.710Z,50.67
2022-11-03T11:50:10.933Z,58.75
2022-11-03T11:52:50.796Z,60.67
2022-11-03T11:55:44.203Z,46.00
2022-11-03T11:58:30.617Z,56.00
2022-11-03T12:01:31.586Z,36.00
2022-11-03T12:07:14.258Z,60.33
2022-11-03T12:09:45.463Z,50.33
2022-11-03T12:12:34.439Z,62.50
2022-11-03T12:15:04.400Z,56.33
2022-11-03T12:17:34.444Z,54.33
2022-11-03T12:20:44.367Z,55.75
2022-11-03T12:23:41.302Z,53.00
2022-11-03T12:26:27.912Z,57.67
2022-11-03T12:28:57.599Z,53.00
2022-11-03T12:31:26.307Z,47.33
2022-11-03T12:33:55.777Z,52.33
2022-11-03T12:36:24.606Z,53.00
2022-11-03T12:38:54.231Z,50.33
2022-11-03T12:41:24.573Z,48.67
2022-11-03T12:43:57.573Z,47.33
2022-11-03T12:46:26.289Z,51.33
2022-11-03T12:48:56.172Z,50.33
2022-11-03T12:51:26.382Z,49.67
2022-11-03T12:53:55.076Z,56.00
2022-11-03T12:56:25.127Z,53.67
2022-11-03T12:58:54.730Z,53.00
2022-11-03T13:01:24.441Z,57.50
2022-11-03T13:03:54.039Z,57.33
2022-11-03T13:06:23.522Z,59.67
2022-11-03T13:08:53.696Z,61.50
2022-11-03T13:11:41.976Z,56.33
2022-11-03T13:14:12.459Z,40.00
2022-11-03T13:16:41.988Z,63.00
2022-11-03T13:19:11.532Z,60.00
2022-11-03T13:21:41.100Z,57.33
2022-11-03T13:24:10.796Z,59.33
2022-11-03T13:26:40.337Z,62.33
2022-11-03T13:29:09.886Z,68.00
2022-11-03T13:31:39.549Z,58.00
2022-11-03T13:34:09.018Z,62.25
2022-11-03T13:36:38.468Z,63.00
2022-11-03T13:39:08.105Z,69.67
2022-11-03T13:41:37.637Z,61.00
2022-11-03T13:44:08.846Z,60.00
2022-11-03T13:46:38.466Z,61.33
2022-11-03T13:49:52.206Z,60.33
2022-11-03T13:51:57.557Z,62.33
2022-11-03T14:00:45.300Z,59.33
2022-11-03T14:06:44.823Z,54.33
2022-11-03T14:12:44.023Z,48.00
2022-11-03T14:15:34.794Z,55.00
2022-11-03T14:18:04.439Z,53.00
2022-11-03T14:20:33.941Z,58.00
2022-11-03T14:23:03.742Z,62.33
2022-11-03T14:25:33.711Z,53.33
2022-11-03T14:28:03.905Z,64.67
2022-11-03T14:30:33.510Z,62.00
2022-11-03T14:33:03.036Z,60.00
2022-11-03T14:35:32.601Z,57.00
2022-11-03T14:38:02.206Z,59.67
2022-11-03T14:40:50.100Z,55.00
2022-11-03T14:43:19.728Z,61.67
2022-11-03T14:45:49.323Z,58.67
2022-11-03T14:48:18.912Z,63.67
2022-11-03T14:50:48.518Z,64.33
2022-11-03T14:53:20.048Z,72.00
2022-11-03T14:55:49.715Z,77.67
2022-11-03T14:58:20.941Z,72.67
2022-11-03T15:00:50.539Z,67.00
2022-11-03T15:03:19.407Z,72.00
2022-11-03T15:05:49.653Z,69.67
2022-11-03T15:08:19.858Z,68.33
2022-11-03T15:10:50.143Z,63.67
2022-11-03T15:13:19.831Z,71.00
2022-11-03T15:15:49.635Z,60.33
2022-11-03T15:18:18.718Z,71.33
2022-11-03T15:20:48.554Z,73.00
2022-11-03T15:26:10.610Z,74.00
2022-11-03T15:28:43.682Z,69.33
2022-11-03T15:31:13.875Z,77.50
2022-11-03T15:33:43.425Z,78.25
2022-11-03T15:36:12.148Z,85.00
2022-11-03T15:38:41.886Z,79.67
2022-11-03T15:41:17.476Z,75.33
2022-11-03T15:43:51.217Z,82.67
2022-11-03T15:46:20.981Z,81.25
2022-11-03T15:48:50.846Z,83.75
2022-11-03T15:51:19.568Z,73.33
2022-11-03T15:53:52.304Z,68.00
2022-11-03T15:56:27.861Z,82.00
2022-11-03T15:58:57.524Z,77.67
2022-11-03T16:01:29.690Z,226.13
2022-11-03T16:03:59.986Z,82.50
2022-11-03T16:06:53.898Z,72.67
2022-11-03T16:09:18.437Z,92.67
2022-11-03T16:11:48.017Z,87.75
2022-11-03T16:14:18.340Z,125.00
2022-11-03T16:16:48.041Z,84.00
2022-11-03T16:19:18.313Z,85.67
2022-11-03T16:21:46.179Z,195.50
2022-11-03T16:24:15.926Z,137.67
2022-11-03T16:26:45.925Z,135.00
2022-11-03T16:29:13.829Z,270.00
2022-11-03T16:31:44.425Z,234.00
2022-11-03T16:34:16.567Z,142.67
2022-11-03T16:36:48.302Z,274.25
2022-11-03T16:39:16.252Z,102.00
2022-11-03T16:41:45.827Z,122.33
2022-11-03T16:44:15.382Z,138.00
2022-11-03T16:46:44.965Z,183.33
2022-11-03T16:49:12.725Z,122.00
2022-11-03T16:51:46.321Z,147.75
2022-11-03T16:54:16.043Z,96.33
2022-11-03T16:56:49.428Z,79.00
2022-11-03T16:59:23.556Z,81.00
2022-11-03T17:01:53.857Z,84.75
2022-11-03T17:04:21.936Z,131.50
2022-11-03T17:06:51.628Z,80.67
2022-11-03T17:09:22.270Z,81.00
2022-11-03T17:11:51.802Z,81.25
2022-11-03T17:14:21.438Z,80.50
2022-11-03T17:16:51.062Z,78.00
2022-11-03T17:19:19.799Z,73.67
2022-11-03T17:21:49.342Z,69.33
2022-11-03T17:24:17.300Z,433.00
2022-11-03T17:27:20.366Z,115.50
2022-11-03T17:30:01.623Z,69.33
2022-11-03T17:32:42.291Z,111.50
2022-11-03T17:35:42.179Z,206.50
2022-11-03T17:38:17.688Z,266.38
2022-11-03T17:40:48.369Z,176.50
2022-11-03T17:43:27.548Z,220.50
2022-11-03T17:45:58.999Z,112.25
2022-11-03T17:48:30.367Z,164.88
2022-11-03T17:51:05.386Z,127.56
2022-11-03T17:53:34.587Z,110.00
2022-11-03T17:56:28.497Z,110.00
2022-11-03T17:58:53.787Z,98.75
2022-11-03T18:01:27.655Z,82.25
2022-11-03T18:03:55.724Z,91.50
2022-11-03T18:06:23.494Z,116.00
2022-11-03T18:08:53.258Z,88.00
2022-11-03T18:11:47.894Z,66.00
2022-11-03T18:14:21.215Z,131.11
2022-11-03T18:16:52.502Z,145.33
2022-11-03T18:19:20.707Z,98.50
2022-11-03T18:21:50.348Z,88.00
2022-11-03T18:24:21.946Z,72.00
2022-11-03T18:26:49.947Z,83.00
2022-11-03T18:29:19.769Z,83.00
2022-11-03T18:31:50.873Z,98.50
2022-11-03T18:34:25.414Z,79.00
2022-11-03T18:36:54.598Z,80.50
2022-11-03T18:39:27.629Z,74.67
2022-11-03T18:41:57.194Z,76.00
2022-11-03T18:44:30.338Z,75.50
2022-11-03T18:46:59.940Z,75.00
2022-11-03T18:49:34.080Z,75.75
2022-11-03T18:52:14.871Z,72.00
2022-11-03T18:54:53.969Z,75.00
2022-11-03T18:57:27.899Z,78.00
2022-11-03T18:59:57.907Z,67.00
2022-11-03T19:02:31.060Z,60.67
2022-11-03T19:05:00.575Z,68.50
2022-11-03T19:07:33.201Z,121.00
2022-11-03T19:10:15.667Z,76.25
2022-11-03T19:12:46.761Z,70.00
2022-11-03T19:15:24.928Z,59.67
2022-11-03T19:17:58.021Z,68.67
2022-11-03T19:20:26.625Z,70.50
2022-11-03T19:22:56.457Z,66.33
2022-11-03T19:25:26.236Z,71.33
2022-11-03T19:27:55.777Z,76.00
2022-11-03T19:30:24.439Z,68.67
2022-11-03T19:32:56.855Z,68.00
2022-11-03T19:35:36.245Z,64.75
2022-11-03T19:38:16.479Z,69.00
2022-11-03T19:41:05.960Z,61.00
2022-11-03T19:43:35.531Z,66.00
2022-11-03T19:46:06.097Z,60.33
2022-11-03T19:48:35.868Z,64.50
2022-11-03T19:51:07.633Z,80.00
2022-11-03T19:53:37.736Z,61.00
2022-11-03T19:56:09.271Z,79.25
2022-11-03T19:58:40.413Z,80.75
2022-11-03T20:01:10.028Z,71.33
2022-11-03T20:03:39.933Z,68.00
2022-11-03T20:06:09.527Z,60.67
2022-11-03T20:08:38.731Z,62.33
2022-11-03T20:11:07.753Z,65.00
2022-11-03T20:13:43.365Z,61.00
2022-11-03T20:16:17.832Z,60.67
2022-11-03T20:18:48.963Z,61.75
2022-11-03T20:21:20.342Z,58.67
2022-11-03T20:23:51.046Z,60.67
2022-11-03T20:26:23.491Z,61.00
2022-11-03T20:28:57.680Z,60.67
2022-11-03T20:31:27.262Z,59.67
2022-11-03T20:33:56.797Z,58.33
2022-11-03T20:36:27.348Z,59.67
2022-11-03T20:38:59.686Z,57.33
2022-11-03T20:41:32.460Z,53.33
2022-11-03T20:44:05.062Z,56.33
2022-11-03T20:46:34.829Z,56.67
2022-11-03T20:49:07.590Z,58.00
2022-11-03T20:51:44.870Z,51.00
2022-11-03T20:54:21.069Z,84.75
2022-11-03T20:56:51.061Z,113.00
2022-11-03T20:59:24.866Z,87.67
2022-11-03T21:01:54.656Z,86.50
2022-11-03T21:04:22.739Z,86.00
2022-11-03T21:06:53.871Z,110.33
2022-11-03T21:09:22.738Z,82.00
2022-11-03T21:11:53.887Z,82.00
2022-11-03T21:14:31.641Z,73.50
2022-11-03T21:17:22.721Z,75.50
2022-11-03T21:20:09.629Z,74.50
2022-11-03T21:22:52.807Z,87.00
2022-11-03T21:25:25.280Z,80.50
2022-11-03T21:27:56.259Z,143.00
2022-11-03T21:30:25.764Z,77.00
2022-11-03T21:32:55.330Z,84.67
2022-11-03T21:35:27.853Z,95.00
2022-11-03T21:37:57.452Z,94.00
2022-11-03T21:40:27.169Z,92.67
2022-11-03T21:43:15.417Z,85.33
2022-11-03T21:45:45.501Z,19.20
2022-11-03T21:48:33.499Z,59.67
2022-11-03T21:51:03.538Z,67.00
2022-11-03T21:53:33.262Z,78.00
2022-11-03T21:56:03.066Z,75.00
2022-11-03T21:58:31.124Z,114.00
2022-11-03T22:01:05.346Z,80.00
2022-11-03T22:03:39.680Z,87.25
2022-11-03T22:06:11.840Z,92.00
2022-11-03T22:08:45.293Z,134.67
2022-11-03T22:11:24.543Z,131.00
2022-11-03T22:14:00.952Z,156.67
2022-11-03T22:16:38.040Z,198.75
2022-11-03T22:19:40.302Z,261.25
2022-11-03T22:22:34.076Z,160.00
2022-11-03T22:25:27.620Z,132.50
2022-11-03T22:27:56.489Z,196.50
2022-11-03T22:30:42.623Z,164.50
2022-11-03T22:33:13.681Z,123.00
2022-11-03T22:36:01.918Z,83.25
2022-11-03T22:38:50.155Z,63.00
2022-11-03T22:41:38.229Z,57.00
2022-11-03T22:44:26.332Z,58.33
2022-11-03T22:46:55.935Z,49.67
2022-11-03T22:49:25.969Z,58.67
2022-11-03T22:51:55.503Z,55.33
2022-11-03T22:54:24.990Z,58.67
2022-11-03T22:56:54.651Z,69.50
2022-11-03T22:59:24.424Z,52.33
2022-11-03T23:01:54.262Z,56.00
2022-11-03T23:04:26.575Z,56.00
2022-11-03T23:06:58.783Z,55.50
2022-11-03T23:09:28.488Z,55.00
2022-11-03T23:11:57.925Z,54.67
2022-11-03T23:14:47.525Z,54.67
2022-11-03T23:17:17.154Z,46.50
2022-11-03T23:20:04.984Z,55.00
2022-11-03T23:22:34.445Z,52.67
2022-11-03T23:25:04.235Z,63.50
2022-11-03T23:27:32.910Z,50.67
2022-11-03T23:30:04.841Z,59.33
2022-11-03T23:32:33.521Z,56.00
2022-11-03T23:35:04.679Z,56.33
2022-11-03T23:37:33.426Z,51.00
2022-11-03T23:40:03.025Z,54.00
2022-11-03T23:42:32.738Z,54.67
2022-11-03T23:45:20.777Z,64.00
2022-11-03T23:48:09.130Z,53.33
2022-11-03T23:50:39.847Z,63.00
2022-11-03T23:53:08.537Z,56.67
2022-11-03T23:55:56.801Z,58.67
2022-11-03T23:58:26.303Z,60.33
